Time;durP1;ratioP1;P1;durP2;ratioP2;P2;SDS_P1;SDS_P2;PMS_P1;PMS_P2;Temp;Humidity;BMP_temperature;BMP_pressure;BME280_temperature;BME280_humidity;BME280_pressure;Samples;Min_cycle;Max_cycle;Signal;HPM_P1;HPM_P2
2022/03/18 00:01:48;;;;;;;;;;;;;;;9.75;63.30;93830.78;2041030;70;20059;-75
2022/03/18 00:04:14;;;;;;;;;;;;;;;9.83;63.07;93829.38;2041163;70;20055;-75
2022/03/18 00:06:40;;;;;;;;;;;;;;;9.89;62.99;93832.66;2040995;70;20059;-75
2022/03/18 00:09:05;;;;;;;;;;;;;;;9.93;62.81;93832.25;2040484;70;20151;-75
2022/03/18 00:11:31;;;;;;;;;;;;;;;9.94;63.04;93833.75;2040969;70;20514;-75
2022/03/18 00:13:58;;;;;;;;;;;;;;;9.98;60.91;93834.06;2040994;70;20111;-74
2022/03/18 00:16:24;;;;;;;;;;;;;;;9.70;63.37;93826.88;2040404;70;20062;-74
2022/03/18 00:18:52;;;;;;;;;;;;;;;9.74;63.39;93832.09;2040994;70;20431;-74
2022/03/18 00:21:19;;;;;;;;;;;;;;;9.57;63.86;93830.00;2041170;70;20139;-74
2022/03/18 00:23:53;;;;;;;;;;;;;;;9.45;63.44;93843.09;2041240;70;20159;-76
2022/03/18 00:26:19;;;;;;;;;;;;;;;9.33;64.35;93837.94;2041227;70;20255;-76
2022/03/18 00:28:45;;;;;;;;;;;;;;;9.55;63.45;93838.28;2041293;70;20099;-75
2022/03/18 00:31:12;;;;;;;;;;;;;;;9.42;64.34;93837.28;2041300;70;20059;-75
2022/03/18 00:33:40;;;;;;;;;;;;;;;9.60;63.87;93835.22;2040625;70;20107;-75
2022/03/18 00:36:06;;;;;;;;;;;;;;;9.54;64.45;93828.38;2041149;70;20081;-74
2022/03/18 00:38:33;;;;;;;;;;;;;;;9.70;63.10;93831.75;2041110;70;20047;-74
2022/03/18 00:41:00;;;;;;;;;;;;;;;9.54;63.92;93834.00;2041290;70;20091;-73
2022/03/18 00:43:26;;;;;;;;;;;;;;;9.57;63.70;93827.94;2041256;70;20500;-75
2022/03/18 00:45:52;;;;;;;;;;;;;;;9.63;63.60;93834.09;2040945;70;20091;-75
2022/03/18 00:53:46;;;;;;;;;;;;;;;9.83;62.67;93835.00;2040709;70;20500;-75
2022/03/18 00:56:12;;;;;;;;;;;;;;;9.80;63.06;93830.53;2040966;70;20086;-74
2022/03/18 00:58:40;;;;;;;;;;;;;;;9.84;62.93;93830.09;2040755;70;20088;-73
2022/03/18 01:01:06;;;;;;;;;;;;;;;9.77;63.78;93826.06;2040843;70;20452;-73
2022/03/18 01:03:31;;;;;;;;;;;;;;;9.68;64.17;93829.53;2041003;70;20437;-73
2022/03/18 01:05:57;;;;;;;;;;;;;;;9.82;63.73;93821.53;2040943;70;20039;-73
2022/03/18 01:08:22;;;;;;;;;;;;;;;9.79;64.41;93829.03;2041046;70;20052;-73
2022/03/18 01:10:48;;;;;;;;;;;;;;;9.82;64.92;93829.97;2040355;70;20047;-74
2022/03/18 01:13:14;;;;;;;;;;;;;;;9.83;65.47;93817.38;2040280;70;20055;-73
2022/03/18 01:15:39;;;;;;;;;;;;;;;9.91;62.83;93826.47;2040339;70;20078;-73
2022/03/18 01:18:05;;;;;;;;;;;;;;;9.86;63.14;93828.22;2040858;70;20054;-74
2022/03/18 01:20:30;;;;;;;;;;;;;;;9.87;63.83;93824.06;2041044;70;20047;-74
2022/03/18 01:22:56;;;;;;;;;;;;;;;9.75;64.12;93825.88;2040982;70;20087;-74
2022/03/18 01:25:22;;;;;;;;;;;;;;;9.82;63.64;93822.25;2041016;70;20499;-74
2022/03/18 01:27:47;;;;;;;;;;;;;;;9.74;64.40;93830.03;2041285;70;20047;-74
2022/03/18 01:30:14;;;;;;;;;;;;;;;9.73;63.90;93830.63;2040404;70;20376;-73
2022/03/18 01:32:39;;;;;;;;;;;;;;;9.86;62.26;93825.41;2040974;70;20067;-73
2022/03/18 01:35:05;;;;;;;;;;;;;;;9.74;64.05;93821.59;2040000;70;20074;-73
2022/03/18 01:37:31;;;;;;;;;;;;;;;9.79;64.04;93819.84;2040806;70;20457;-73
2022/03/18 01:39:57;;;;;;;;;;;;;;;9.75;64.79;93828.69;2041036;70;20052;-74
2022/03/18 01:42:23;;;;;;;;;;;;;;;9.86;64.06;93821.84;2040843;70;20150;-74
2022/03/18 01:44:48;;;;;;;;;;;;;;;9.93;64.16;93830.19;2040974;70;20063;-74
2022/03/18 01:47:14;;;;;;;;;;;;;;;9.97;64.27;93829.78;2041092;70;20205;-75
2022/03/18 01:49:40;;;;;;;;;;;;;;;10.00;63.38;93830.69;2041219;70;20052;-74
2022/03/18 01:52:11;;;;;;;;;;;;;;;9.89;64.22;93831.94;2040855;70;20480;-73
2022/03/18 01:54:47;;;;;;;;;;;;;;;9.65;67.30;93833.50;2043242;70;20078;-75
2022/03/18 01:57:18;;;;;;;;;;;;;;;9.57;67.83;93835.63;2041111;70;20044;-74
2022/03/18 01:59:55;;;;;;;;;;;;;;;9.65;66.58;93828.63;2041091;70;20131;-75
2022/03/18 02:02:22;;;;;;;;;;;;;;;9.78;65.86;93832.44;2041033;70;20059;-77
2022/03/18 02:04:49;;;;;;;;;;;;;;;9.79;65.62;93829.03;2041058;70;20036;-74
2022/03/18 02:07:16;;;;;;;;;;;;;;;9.82;66.01;93835.59;2043581;70;20142;-75
2022/03/18 02:09:43;;;;;;;;;;;;;;;9.81;65.55;93842.53;2040847;70;20087;-75
2022/03/18 02:12:09;;;;;;;;;;;;;;;9.96;64.00;93827.56;2041126;70;20044;-74
2022/03/18 02:14:45;;;;;;;;;;;;;;;9.92;65.13;93830.78;2041124;70;20086;-76
2022/03/18 02:17:11;;;;;;;;;;;;;;;9.75;66.38;93839.22;2041088;70;20047;-75
2022/03/18 02:19:37;;;;;;;;;;;;;;;9.49;67.75;93820.94;2041141;70;20067;-75
2022/03/18 02:22:05;;;;;;;;;;;;;;;9.60;67.48;93834.50;2041230;70;20435;-74
2022/03/18 02:24:30;;;;;;;;;;;;;;;9.64;67.12;93837.66;2041119;70;20054;-75
2022/03/18 02:26:56;;;;;;;;;;;;;;;9.68;66.49;93844.34;2040566;70;20064;-76
2022/03/18 02:29:23;;;;;;;;;;;;;;;9.78;66.60;93838.06;2041036;70;20420;-76
2022/03/18 02:31:49;;;;;;;;;;;;;;;9.51;68.19;93830.25;2041312;70;20056;-76
2022/03/18 02:34:14;;;;;;;;;;;;;;;9.75;66.58;93839.22;2040529;70;20493;-76
2022/03/18 02:36:40;;;;;;;;;;;;;;;9.79;65.62;93840.28;2041093;70;20488;-77
2022/03/18 02:39:06;;;;;;;;;;;;;;;9.66;67.37;93829.38;2041013;70;20051;-75
2022/03/18 02:41:32;;;;;;;;;;;;;;;9.68;66.86;93833.09;2041057;70;20077;-75
2022/03/18 02:43:58;;;;;;;;;;;;;;;9.89;64.15;93843.19;2041000;70;20376;-75
2022/03/18 02:46:24;;;;;;;;;;;;;;;9.87;65.86;93840.94;2041058;70;20048;-75
2022/03/18 02:48:51;;;;;;;;;;;;;;;9.83;65.78;93842.69;2041027;70;20492;-76
2022/03/18 02:51:16;;;;;;;;;;;;;;;9.90;65.88;93844.69;2041045;70;20074;-75
2022/03/18 02:53:42;;;;;;;;;;;;;;;9.88;65.75;93845.25;2041087;70;20058;-75
2022/03/18 02:56:07;;;;;;;;;;;;;;;9.91;65.48;93843.34;2041079;70;20435;-75
2022/03/18 02:58:35;;;;;;;;;;;;;;;9.86;66.77;93847.16;2041373;70;20424;-75
2022/03/18 03:01:00;;;;;;;;;;;;;;;9.84;66.87;93849.78;2041446;70;20086;-77
2022/03/18 03:03:26;;;;;;;;;;;;;;;9.71;67.97;93853.66;2041354;70;20134;-76
2022/03/18 03:08:35;;;;;;;;;;;;;;;9.90;66.25;93855.94;2041404;70;20139;-77
2022/03/18 03:11:01;;;;;;;;;;;;;;;9.98;66.10;93855.84;2041297;70;20055;-77
2022/03/18 03:13:27;;;;;;;;;;;;;;;9.84;69.01;93858.25;2041401;70;20238;-77
2022/03/18 03:15:52;;;;;;;;;;;;;;;9.86;68.28;93864.78;2041216;70;20427;-76
2022/03/18 03:18:18;;;;;;;;;;;;;;;9.85;68.57;93868.16;2041587;70;20039;-77
2022/03/18 03:20:43;;;;;;;;;;;;;;;9.79;68.35;93868.41;2041524;70;20044;-77
2022/03/18 03:23:09;;;;;;;;;;;;;;;9.85;68.00;93870.97;2040790;70;20050;-75
2022/03/18 03:25:36;;;;;;;;;;;;;;;9.79;68.39;93862.78;2041491;70;20090;-75
2022/03/18 03:28:01;;;;;;;;;;;;;;;9.88;67.89;93870.56;2041493;70;20044;-75
2022/03/18 03:30:27;;;;;;;;;;;;;;;9.83;67.00;93870.81;2041364;70;20413;-75
2022/03/18 03:32:53;;;;;;;;;;;;;;;9.96;65.10;93873.31;2041474;70;20048;-76
2022/03/18 03:35:18;;;;;;;;;;;;;;;9.99;65.29;93868.56;2041555;70;20060;-75
2022/03/18 03:37:44;;;;;;;;;;;;;;;9.80;66.86;93869.88;2041463;70;20055;-76
2022/03/18 03:40:13;;;;;;;;;;;;;;;9.91;61.38;93883.47;2041582;70;20162;-77
2022/03/18 03:42:42;;;;;;;;;;;;;;;9.91;66.17;93880.66;2041434;70;20160;-77
2022/03/18 03:45:08;;;;;;;;;;;;;;;9.72;67.97;93886.13;2041355;70;20064;-77
2022/03/18 03:47:34;;;;;;;;;;;;;;;9.51;70.16;93888.56;2041461;70;20473;-77
2022/03/18 03:49:59;;;;;;;;;;;;;;;9.61;68.78;93900.63;2041565;70;20119;-75
2022/03/18 03:52:25;;;;;;;;;;;;;;;9.75;67.60;93904.63;2041460;70;20040;-75
2022/03/18 03:54:50;;;;;;;;;;;;;;;9.72;67.57;93907.88;2041453;70;20115;-75
2022/03/18 03:57:16;;;;;;;;;;;;;;;9.80;67.44;93908.53;2041376;70;20202;-75
2022/03/18 03:59:41;;;;;;;;;;;;;;;9.73;68.07;93910.09;2041323;70;20469;-75
2022/03/18 04:02:08;;;;;;;;;;;;;;;9.86;62.92;93903.41;2041290;70;20076;-75
2022/03/18 04:04:33;;;;;;;;;;;;;;;9.93;66.04;93911.03;2041435;70;20150;-76
2022/03/18 04:06:59;;;;;;;;;;;;;;;9.83;64.09;93907.38;2041389;70;20135;-74
2022/03/18 04:09:24;;;;;;;;;;;;;;;9.47;68.23;93903.00;2041402;70;20143;-75
2022/03/18 04:11:50;;;;;;;;;;;;;;;9.68;65.76;93911.81;2041415;70;20194;-75
2022/03/18 04:14:15;;;;;;;;;;;;;;;9.63;66.17;93921.25;2041343;70;20106;-76
2022/03/18 04:16:41;;;;;;;;;;;;;;;9.76;64.33;93911.00;2041422;70;20139;-77
2022/03/18 04:19:06;;;;;;;;;;;;;;;9.66;66.59;93910.91;2041353;70;20591;-75
2022/03/18 04:21:32;;;;;;;;;;;;;;;9.77;64.42;93918.88;2043624;70;20078;-76
2022/03/18 04:23:57;;;;;;;;;;;;;;;9.85;63.83;93916.75;2041420;70;20103;-75
2022/03/18 04:26:23;;;;;;;;;;;;;;;9.96;62.68;93917.56;2041469;70;20048;-75
2022/03/18 04:28:48;;;;;;;;;;;;;;;9.85;63.07;93921.59;2041349;70;20044;-74
2022/03/18 04:31:13;;;;;;;;;;;;;;;9.74;66.20;93922.84;2041352;70;20479;-74
2022/03/18 04:33:40;;;;;;;;;;;;;;;9.35;68.10;93921.69;2043628;70;20504;-75
2022/03/18 04:36:06;;;;;;;;;;;;;;;9.54;64.76;93921.16;2040893;70;20055;-74
2022/03/18 04:38:31;;;;;;;;;;;;;;;9.52;65.28;93932.94;2041591;70;20145;-75
2022/03/18 04:40:57;;;;;;;;;;;;;;;9.36;66.80;93937.22;2041553;70;20071;-76
2022/03/18 04:43:22;;;;;;;;;;;;;;;9.46;67.10;93934.50;2041410;70;20048;-76
2022/03/18 04:45:47;;;;;;;;;;;;;;;9.48;67.30;93934.69;2041273;70;20040;-76
2022/03/18 04:48:13;;;;;;;;;;;;;;;9.68;65.40;93931.50;2041474;70;20083;-75
2022/03/18 04:50:40;;;;;;;;;;;;;;;9.65;66.65;93938.28;2041448;70;20598;-74
2022/03/18 04:53:05;;;;;;;;;;;;;;;9.64;67.24;93936.06;2041507;70;20060;-74
2022/03/18 04:55:31;;;;;;;;;;;;;;;9.62;67.27;93941.50;2043688;70;20049;-74
2022/03/18 04:57:56;;;;;;;;;;;;;;;9.72;65.76;93944.44;2041486;70;20083;-76
2022/03/18 05:00:24;;;;;;;;;;;;;;;9.80;65.90;93942.28;2041231;70;20492;-76
2022/03/18 05:02:55;;;;;;;;;;;;;;;9.75;66.28;93946.81;2041365;70;20488;-75
2022/03/18 05:05:21;;;;;;;;;;;;;;;9.72;66.35;93947.97;2041365;70;20055;-75
2022/03/18 05:07:50;;;;;;;;;;;;;;;9.68;67.22;93953.25;2041322;70;20071;-76
2022/03/18 05:10:16;;;;;;;;;;;;;;;9.58;67.52;93955.22;2041365;70;20432;-76
2022/03/18 05:12:42;;;;;;;;;;;;;;;9.66;67.47;93951.00;2041431;70;20047;-75
2022/03/18 05:15:08;;;;;;;;;;;;;;;9.61;68.20;93952.00;2041161;70;20047;-75
2022/03/18 05:17:34;;;;;;;;;;;;;;;9.57;68.31;93960.09;2041473;70;20491;-74
2022/03/18 05:20:00;;;;;;;;;;;;;;;9.58;68.57;93960.84;2041301;70;20051;-76
2022/03/18 05:22:25;;;;;;;;;;;;;;;9.56;68.87;93966.28;2041830;70;20059;-74
2022/03/18 05:24:52;;;;;;;;;;;;;;;9.57;69.09;93964.97;2041403;70;20040;-74
2022/03/18 05:27:18;;;;;;;;;;;;;;;9.51;69.48;93968.00;2041308;70;20075;-75
2022/03/18 05:29:44;;;;;;;;;;;;;;;9.54;68.73;93966.88;2041218;70;20055;-75
2022/03/18 05:32:09;;;;;;;;;;;;;;;9.63;66.36;93969.06;2041323;70;20476;-74
2022/03/18 05:34:35;;;;;;;;;;;;;;;9.63;66.71;93971.88;2041383;70;20174;-73
2022/03/18 05:37:00;;;;;;;;;;;;;;;9.61;67.58;93976.56;2040443;70;20174;-74
2022/03/18 05:39:25;;;;;;;;;;;;;;;9.70;67.04;93975.91;2041378;70;20048;-74
2022/03/18 05:41:51;;;;;;;;;;;;;;;9.65;67.92;93977.66;2041363;70;20050;-74
2022/03/18 05:44:16;;;;;;;;;;;;;;;9.63;67.62;93976.75;2041206;70;20184;-74
2022/03/18 05:46:42;;;;;;;;;;;;;;;9.64;66.93;93989.47;2043394;70;20424;-76
2022/03/18 05:49:07;;;;;;;;;;;;;;;9.72;65.95;93986.63;2041217;70;20047;-77
2022/03/18 05:51:33;;;;;;;;;;;;;;;9.76;66.39;93987.69;2041353;70;20420;-74
2022/03/18 05:53:58;;;;;;;;;;;;;;;9.70;66.78;93989.97;2041373;70;20078;-73
2022/03/18 05:59:11;;;;;;;;;;;;;;;9.63;67.84;93991.53;2041125;70;20043;-74
2022/03/18 06:01:39;;;;;;;;;;;;;;;9.63;68.38;94002.06;2041210;70;20465;-75
2022/03/18 06:04:06;;;;;;;;;;;;;;;9.59;69.03;93996.81;2041454;70;20446;-76
2022/03/18 06:06:31;;;;;;;;;;;;;;;9.71;66.04;94005.53;2040702;70;20048;-75
2022/03/18 06:11:48;;;;;;;;;;;;;;;9.54;69.11;93997.06;2041357;70;20055;-75
2022/03/18 06:14:14;;;;;;;;;;;;;;;9.58;68.29;94003.03;2041196;70;20077;-75
2022/03/18 06:16:40;;;;;;;;;;;;;;;9.61;68.17;94004.66;2041197;70;20480;-74
2022/03/18 06:19:06;;;;;;;;;;;;;;;9.66;67.77;94000.88;2041295;70;20536;-75
2022/03/18 06:21:32;;;;;;;;;;;;;;;9.62;68.32;94009.75;2041186;70;20090;-75
2022/03/18 06:23:57;;;;;;;;;;;;;;;9.66;68.50;94014.94;2043379;70;20103;-76
2022/03/18 06:26:22;;;;;;;;;;;;;;;9.42;70.92;94013.63;2040737;70;20138;-76
2022/03/18 06:28:49;;;;;;;;;;;;;;;9.54;69.56;94016.72;2041167;70;20079;-75
2022/03/18 06:31:14;;;;;;;;;;;;;;;9.70;67.60;94012.47;2041277;70;20420;-76
2022/03/18 06:33:43;;;;;;;;;;;;;;;9.60;69.00;94022.88;2041532;70;20083;-75
2022/03/18 06:36:09;;;;;;;;;;;;;;;9.60;68.60;94020.81;2041677;70;20143;-74
2022/03/18 06:38:35;;;;;;;;;;;;;;;9.45;70.67;94020.91;2041657;70;20044;-75
2022/03/18 06:41:00;;;;;;;;;;;;;;;9.50;69.71;94025.56;2041881;70;20135;-74
2022/03/18 06:43:26;;;;;;;;;;;;;;;9.52;70.28;94024.97;2041736;70;20138;-74
2022/03/18 06:45:51;;;;;;;;;;;;;;;9.57;69.73;94030.38;2041669;70;20048;-75
2022/03/18 06:48:16;;;;;;;;;;;;;;;9.48;70.08;94030.25;2041737;70;20071;-75
2022/03/18 06:50:42;;;;;;;;;;;;;;;9.40;70.51;94028.25;2041623;70;20060;-76
2022/03/18 06:53:09;;;;;;;;;;;;;;;9.44;69.37;94027.88;2041656;70;20052;-75
2022/03/18 06:55:35;;;;;;;;;;;;;;;9.60;67.06;94026.41;2040789;70;20048;-76
2022/03/18 06:58:02;;;;;;;;;;;;;;;9.58;68.98;94028.34;2041530;70;20055;-76
2022/03/18 07:00:28;;;;;;;;;;;;;;;9.62;68.42;94034.28;2040947;70;20118;-76
2022/03/18 07:02:53;;;;;;;;;;;;;;;9.57;68.91;94032.44;2041431;70;20059;-77
2022/03/18 07:05:19;;;;;;;;;;;;;;;9.45;70.08;94037.78;2041600;70;20058;-75
2022/03/18 07:07:44;;;;;;;;;;;;;;;9.43;70.18;94043.22;2041595;70;20063;-75
2022/03/18 07:10:12;;;;;;;;;;;;;;;9.50;70.00;94042.44;2041562;70;20142;-74
2022/03/18 07:12:37;;;;;;;;;;;;;;;9.52;69.95;94051.03;2041538;70;20068;-75
2022/03/18 07:15:03;;;;;;;;;;;;;;;9.55;69.28;94043.53;2041427;70;20432;-76
2022/03/18 07:20:13;;;;;;;;;;;;;;;9.47;70.01;94049.19;2041608;70;20044;-74
2022/03/18 07:22:40;;;;;;;;;;;;;;;9.49;69.24;94063.44;2043796;70;20142;-75
2022/03/18 07:25:07;;;;;;;;;;;;;;;9.52;69.21;94051.03;2041504;70;20047;-75
2022/03/18 07:27:33;;;;;;;;;;;;;;;9.47;69.63;94060.44;2041614;70;20056;-74
2022/03/18 07:29:58;;;;;;;;;;;;;;;9.46;69.93;94055.38;2041476;70;20044;-74
2022/03/18 07:32:23;;;;;;;;;;;;;;;9.50;69.46;94055.75;2040996;70;20044;-73
2022/03/18 07:34:49;;;;;;;;;;;;;;;9.63;68.16;94059.03;2041515;70;20480;-76
2022/03/18 07:37:15;;;;;;;;;;;;;;;9.59;68.20;94057.94;2041516;70;20488;-75
2022/03/18 07:39:40;;;;;;;;;;;;;;;9.42;70.88;94056.53;2041641;70;20048;-76
2022/03/18 07:42:06;;;;;;;;;;;;;;;9.55;69.35;94058.31;2041464;70;20048;-76
2022/03/18 07:44:31;;;;;;;;;;;;;;;9.74;63.91;94057.81;2041315;70;20036;-75
2022/03/18 07:46:57;;;;;;;;;;;;;;;9.80;65.68;94057.59;2041599;70;20067;-74
2022/03/18 07:49:22;;;;;;;;;;;;;;;9.71;67.51;94061.03;2041077;70;20051;-76
2022/03/18 07:51:48;;;;;;;;;;;;;;;9.64;67.29;94060.50;2041601;70;20441;-75
2022/03/18 07:54:13;;;;;;;;;;;;;;;9.65;67.98;94059.19;2041502;70;20104;-75
2022/03/18 07:56:39;;;;;;;;;;;;;;;9.72;67.42;94063.28;2043765;70;20488;-75
2022/03/18 07:59:04;;;;;;;;;;;;;;;9.59;68.08;94067.13;2041428;70;20055;-76
2022/03/18 08:01:30;;;;;;;;;;;;;;;9.59;69.33;94069.19;2041485;70;20083;-77
2022/03/18 08:03:55;;;;;;;;;;;;;;;9.72;67.91;94074.53;2040943;70;20040;-77
2022/03/18 08:06:21;;;;;;;;;;;;;;;9.71;68.28;94078.66;2043651;70;20040;-77
2022/03/18 08:08:46;;;;;;;;;;;;;;;9.70;68.87;94076.41;2041674;70;20044;-78
2022/03/18 08:11:12;;;;;;;;;;;;;;;9.67;68.69;94090.31;2040891;70;20055;-76
2022/03/18 08:13:38;;;;;;;;;;;;;;;9.73;68.03;94084.47;2043633;70;20067;-78
2022/03/18 08:16:03;;;;;;;;;;;;;;;9.71;67.92;94086.34;2041462;70;20115;-75
2022/03/18 08:18:29;;;;;;;;;;;;;;;9.71;68.00;94083.53;2040719;70;20145;-75
2022/03/18 08:20:54;;;;;;;;;;;;;;;9.77;67.85;94092.50;2041764;70;20051;-78
2022/03/18 08:23:20;;;;;;;;;;;;;;;9.88;67.08;94087.16;2043635;70;20040;-76
2022/03/18 08:25:47;;;;;;;;;;;;;;;9.96;65.39;94094.81;2041533;70;20099;-77
2022/03/18 08:28:12;;;;;;;;;;;;;;;9.97;64.27;94094.22;2041501;70;20051;-78
2022/03/18 08:30:41;;;;;;;;;;;;;;;9.86;66.04;94089.06;2041324;70;20095;-78
2022/03/18 08:33:06;;;;;;;;;;;;;;;10.01;60.41;94091.00;2041445;70;20051;-79
2022/03/18 08:35:36;;;;;;;;;;;;;;;10.09;61.19;94095.25;2041582;70;20048;-79
2022/03/18 08:38:03;;;;;;;;;;;;;;;10.01;64.98;94102.25;2041403;70;20135;-79
2022/03/18 08:40:33;;;;;;;;;;;;;;;9.78;66.38;94088.38;2041443;70;20084;-80
2022/03/18 08:42:59;;;;;;;;;;;;;;;9.87;66.22;94096.19;2041549;70;20043;-79
2022/03/18 08:45:25;;;;;;;;;;;;;;;9.89;65.91;94101.97;2041289;70;20043;-77
2022/03/18 08:47:51;;;;;;;;;;;;;;;9.91;66.16;94110.59;2041530;70;20119;-75
2022/03/18 08:50:17;;;;;;;;;;;;;;;10.08;63.63;94110.66;2041498;70;20059;-78
2022/03/18 08:52:43;;;;;;;;;;;;;;;10.07;64.20;94109.16;2041415;70;20054;-77
2022/03/18 08:55:09;;;;;;;;;;;;;;;10.12;63.41;94105.34;2041360;70;20043;-76
2022/03/18 08:57:37;;;;;;;;;;;;;;;9.64;64.44;94111.13;2041473;70;20488;-76
2022/03/18 09:00:07;;;;;;;;;;;;;;;9.88;63.23;94109.66;2041298;70;20433;-80
2022/03/18 09:02:32;;;;;;;;;;;;;;;9.72;64.34;94104.72;2040868;70;20063;-76
2022/03/18 09:04:58;;;;;;;;;;;;;;;9.83;63.75;94112.69;2041296;70;20587;-77
2022/03/18 09:07:24;;;;;;;;;;;;;;;9.70;65.92;94110.91;2041398;70;20094;-78
2022/03/18 09:09:49;;;;;;;;;;;;;;;9.84;65.58;94117.00;2041448;70;20083;-79
2022/03/18 09:12:18;;;;;;;;;;;;;;;10.05;62.76;94119.50;2041367;70;20094;-79
2022/03/18 09:14:44;;;;;;;;;;;;;;;10.04;63.46;94118.75;2041290;70;20048;-79
2022/03/18 09:17:11;;;;;;;;;;;;;;;10.09;63.66;94119.84;2041308;70;20417;-78
2022/03/18 09:19:37;;;;;;;;;;;;;;;10.37;63.81;94130.72;2041394;70;20060;-78
2022/03/18 09:22:06;;;;;;;;;;;;;;;10.53;62.18;94131.31;2043603;70;20052;-81
2022/03/18 09:24:32;;;;;;;;;;;;;;;10.31;62.98;94127.41;2041493;70;20080;-80
2022/03/18 09:26:58;;;;;;;;;;;;;;;9.99;64.15;94127.41;2041228;70;20560;-80
2022/03/18 09:29:25;;;;;;;;;;;;;;;10.20;64.04;94130.63;2041111;70;20143;-79
2022/03/18 09:31:50;;;;;;;;;;;;;;;10.28;63.88;94130.59;2041261;70;20052;-79
2022/03/18 09:34:16;;;;;;;;;;;;;;;9.43;67.11;94136.72;2041258;70;20047;-79
2022/03/18 09:36:42;;;;;;;;;;;;;;;9.62;65.63;94138.31;2040760;70;20155;-79
2022/03/18 09:39:07;;;;;;;;;;;;;;;9.15;67.80;94134.97;2041409;70;20072;-79
2022/03/18 09:41:33;;;;;;;;;;;;;;;9.57;66.92;94142.09;2041291;70;20055;-79
2022/03/18 09:43:59;;;;;;;;;;;;;;;9.91;64.48;94142.28;2043398;70;20043;-77
2022/03/18 09:46:25;;;;;;;;;;;;;;;10.26;62.56;94147.31;2041232;70;20142;-77
2022/03/18 09:48:51;;;;;;;;;;;;;;;10.46;61.40;94148.28;2041280;70;20079;-77
2022/03/18 09:51:17;;;;;;;;;;;;;;;10.32;64.14;94148.59;2041271;70;20048;-78
2022/03/18 09:53:43;;;;;;;;;;;;;;;10.52;62.32;94143.91;2041319;70;20044;-77
2022/03/18 09:56:09;;;;;;;;;;;;;;;10.69;59.92;94143.22;2041460;70;20059;-77
2022/03/18 09:58:34;;;;;;;;;;;;;;;10.72;59.68;94144.88;2041230;70;20548;-78
2022/03/18 10:01:01;;;;;;;;;;;;;;;10.48;60.94;94145.63;2041175;70;20087;-79
2022/03/18 10:03:37;;;;;;;;;;;;;;;10.28;62.08;94141.88;2043420;70;20043;-78
2022/03/18 10:06:04;;;;;;;;;;;;;;;10.20;61.82;94144.69;2041433;70;20074;-79
2022/03/18 10:08:35;;;;;;;;;;;;;;;10.63;60.30;94151.16;2041279;70;20056;-78
2022/03/18 10:11:19;;;;;;;;;;;;;;;10.38;61.70;94148.34;2043460;70;20054;-78
2022/03/18 10:14:05;;;;;;;;;;;;;;;10.29;61.63;94144.09;2040590;70;20052;-77
2022/03/18 10:16:33;;;;;;;;;;;;;;;10.39;61.95;94155.47;2041259;70;20139;-77
2022/03/18 10:19:03;;;;;;;;;;;;;;;10.37;61.78;94150.41;2043516;70;20059;-77
2022/03/18 10:21:29;;;;;;;;;;;;;;;10.59;61.17;94151.56;2041202;70;20044;-77
2022/03/18 10:24:09;;;;;;;;;;;;;;;10.02;62.94;94145.97;2041231;70;20046;-77
2022/03/18 10:26:35;;;;;;;;;;;;;;;10.23;61.28;94148.44;2043359;70;20055;-77
2022/03/18 10:29:01;;;;;;;;;;;;;;;10.82;59.49;94156.25;2041090;70;20047;-77
2022/03/18 10:31:26;;;;;;;;;;;;;;;10.51;60.05;94150.13;2043378;70;20051;-77
2022/03/18 10:39:28;;;;;;;;;;;;;;;11.31;57.57;94148.94;2041147;70;20062;-76
2022/03/18 10:41:54;;;;;;;;;;;;;;;11.18;57.83;94141.59;2041233;70;20499;-77
2022/03/18 10:44:20;;;;;;;;;;;;;;;11.35;57.26;94138.72;2040642;70;20052;-77
2022/03/18 10:46:48;;;;;;;;;;;;;;;11.32;56.53;94139.91;2043257;70;20070;-77
2022/03/18 10:49:13;;;;;;;;;;;;;;;11.70;56.22;94139.44;2043371;70;20051;-77
2022/03/18 10:51:39;;;;;;;;;;;;;;;11.85;54.86;94141.31;2041175;70;20048;-76
2022/03/18 10:54:05;;;;;;;;;;;;;;;11.95;55.31;94144.19;2041277;70;20063;-77
2022/03/18 10:56:51;;;;;;;;;;;;;;;12.30;54.39;94132.78;2041146;70;20476;-77
2022/03/18 10:59:18;;;;;;;;;;;;;;;12.61;53.80;94139.44;2040970;70;20060;-77
2022/03/18 11:01:48;;;;;;;;;;;;;;;12.78;53.34;94135.72;2041085;70;20178;-77
2022/03/18 11:04:17;;;;;;;;;;;;;;;12.73;52.81;94131.84;2041353;70;20469;-77
2022/03/18 11:07:29;;;;;;;;;;;;;;;12.92;52.52;94138.88;2040557;70;20432;-77
2022/03/18 11:11:06;;;;;;;;;;;;;;;12.45;53.41;94138.19;2040758;70;20143;-76
2022/03/18 11:12:22;;;;;;;;;;;;;;;12.49;52.92;94137.75;2041065;70;20074;-80
2022/03/18 11:14:51;;;;;;;;;;;;;;;12.64;52.39;94143.13;2043154;70;20059;-78
2022/03/18 11:17:17;;;;;;;;;;;;;;;12.65;52.56;94139.00;2043237;70;20052;-77
2022/03/18 11:19:44;;;;;;;;;;;;;;;12.91;51.71;94137.41;2041522;70;20119;-76
2022/03/18 11:22:10;;;;;;;;;;;;;;;13.27;51.28;94135.81;2041574;70;20047;-77
2022/03/18 11:24:36;;;;;;;;;;;;;;;14.84;48.85;94141.97;2041600;70;20496;-81
2022/03/18 11:27:03;;;;;;;;;;;;;;;14.86;46.77;94133.63;2041051;70;20055;-80
2022/03/18 11:29:29;;;;;;;;;;;;;;;14.00;47.35;94135.44;2040909;70;20047;-77
2022/03/18 11:32:12;;;;;;;;;;;;;;;13.92;48.26;94132.78;2041696;70;20044;-80
2022/03/18 11:35:04;;;;;;;;;;;;;;;14.72;46.74;94132.66;2041552;70;20187;-75
2022/03/18 11:37:29;;;;;;;;;;;;;;;14.95;45.33;94121.47;2041143;70;20083;-77
2022/03/18 11:40:13;;;;;;;;;;;;;;;15.42;45.34;94118.91;2041553;70;20044;-78
2022/03/18 11:42:39;;;;;;;;;;;;;;;15.28;44.71;94120.06;2041394;70;20108;-77
2022/03/18 11:45:06;;;;;;;;;;;;;;;16.00;44.12;94111.97;2041411;70;20060;-80
2022/03/18 11:47:32;;;;;;;;;;;;;;;17.37;42.39;94111.72;2041016;70;20055;-78
2022/03/18 11:49:58;;;;;;;;;;;;;;;16.84;41.41;94114.28;2041562;70;20071;-76
2022/03/18 11:52:23;;;;;;;;;;;;;;;17.30;40.40;94113.44;2041649;70;20044;-79
2022/03/18 11:54:53;;;;;;;;;;;;;;;18.51;38.36;94100.97;2041066;70;20514;-79
2022/03/18 11:57:32;;;;;;;;;;;;;;;19.90;35.98;94108.81;2041447;70;20533;-77
2022/03/18 12:00:00;;;;;;;;;;;;;;;20.71;34.87;94111.91;2041428;70;20110;-78
2022/03/18 12:02:36;;;;;;;;;;;;;;;21.82;33.89;94109.56;2041134;70;20074;-76
2022/03/18 12:05:02;;;;;;;;;;;;;;;21.36;32.86;94102.63;2041488;70;20048;-76
2022/03/18 12:07:30;;;;;;;;;;;;;;;21.08;33.95;94104.22;2041493;70;20150;-77
2022/03/18 12:09:57;;;;;;;;;;;;;;;21.79;33.46;94095.78;2041470;70;20398;-78
2022/03/18 12:12:28;;;;;;;;;;;;;;;21.70;32.04;94091.84;2043655;70;20054;-78
2022/03/18 12:14:55;;;;;;;;;;;;;;;22.43;29.76;94088.31;2041350;70;20060;-77
2022/03/18 12:17:22;;;;;;;;;;;;;;;22.74;30.86;94080.88;2041424;70;20052;-76
2022/03/18 12:19:49;;;;;;;;;;;;;;;23.43;29.95;94079.78;2041446;70;20509;-76
2022/03/18 12:22:15;;;;;;;;;;;;;;;21.29;30.10;94083.66;2041475;70;20091;-76
2022/03/18 12:24:40;;;;;;;;;;;;;;;21.81;29.81;94073.69;2041610;70;20083;-77
2022/03/18 12:27:06;;;;;;;;;;;;;;;21.64;30.09;94076.53;2040879;70;20062;-77
2022/03/18 12:29:31;;;;;;;;;;;;;;;22.37;29.99;94078.75;2041242;70;20416;-77
2022/03/18 12:32:09;;;;;;;;;;;;;;;23.87;27.53;94079.81;2041294;70;20043;-76
2022/03/18 12:34:49;;;;;;;;;;;;;;;24.20;27.71;94076.63;2041456;70;20051;-77
2022/03/18 12:37:19;;;;;;;;;;;;;;;25.05;25.59;94072.69;2041402;70;20052;-77
2022/03/18 12:39:45;;;;;;;;;;;;;;;23.68;25.50;94072.75;2041445;70;20055;-75
2022/03/18 12:42:12;;;;;;;;;;;;;;;22.63;27.47;94062.53;2041472;70;20048;-76
2022/03/18 12:44:43;;;;;;;;;;;;;;;23.12;27.07;94060.72;2041379;70;20087;-76
2022/03/18 12:47:09;;;;;;;;;;;;;;;23.90;26.07;94064.13;2041462;70;20146;-76
2022/03/18 12:49:37;;;;;;;;;;;;;;;24.73;25.73;94066.00;2041404;70;20143;-76
2022/03/18 12:52:08;;;;;;;;;;;;;;;22.93;27.39;94050.72;2041434;70;20050;-76
2022/03/18 12:54:33;;;;;;;;;;;;;;;22.21;27.51;94050.91;2041574;70;20044;-76
2022/03/18 12:57:09;;;;;;;;;;;;;;;22.41;27.02;94053.09;2043749;70;20150;-76
2022/03/18 12:59:36;;;;;;;;;;;;;;;23.34;26.22;94062.25;2043460;70;20055;-76
2022/03/18 13:02:03;;;;;;;;;;;;;;;21.72;28.10;94053.97;2041434;70;20052;-76
2022/03/18 13:04:31;;;;;;;;;;;;;;;22.79;27.85;94051.66;2041376;70;20048;-76
2022/03/18 13:06:57;;;;;;;;;;;;;;;23.41;27.27;94059.56;2041496;70;20055;-76
2022/03/18 13:09:23;;;;;;;;;;;;;;;21.01;28.33;94051.66;2041355;70;20464;-76
2022/03/18 13:11:49;;;;;;;;;;;;;;;21.52;27.38;94039.53;2041405;70;20067;-76
2022/03/18 13:14:28;;;;;;;;;;;;;;;22.69;27.71;94050.56;2041261;70;20428;-76